createdAt,value
2022-10-07T00:01:13.111Z,13.37
2022-10-07T00:03:42.169Z,13.37
2022-10-07T00:06:14.321Z,13.37
2022-10-07T00:08:44.673Z,13.38
2022-10-07T00:11:18.956Z,13.37
2022-10-07T00:13:49.458Z,13.36
2022-10-07T00:16:20.378Z,13.32
2022-10-07T00:18:49.271Z,13.32
2022-10-07T00:21:20.239Z,13.31
2022-10-07T00:23:49.363Z,13.32
2022-10-07T00:26:20.488Z,13.31
2022-10-07T00:28:50.098Z,13.30
2022-10-07T00:31:21.531Z,13.29
2022-10-07T00:33:50.849Z,13.28
2022-10-07T00:36:20.776Z,13.27
2022-10-07T00:38:51.687Z,13.26
2022-10-07T00:41:23.471Z,13.25
2022-10-07T00:43:51.922Z,13.23
2022-10-07T00:46:29.502Z,13.22
2022-10-07T00:49:00.341Z,13.24
2022-10-07T00:51:29.487Z,13.25
2022-10-07T00:53:58.292Z,13.28
2022-10-07T00:56:30.059Z,13.28
2022-10-07T00:59:00.132Z,13.29
2022-10-07T01:01:31.540Z,13.29
2022-10-07T01:04:00.021Z,13.28
2022-10-07T01:06:28.210Z,13.28
2022-10-07T01:08:57.661Z,13.28
2022-10-07T01:11:43.358Z,13.26
2022-10-07T01:14:16.790Z,13.24
2022-10-07T01:17:01.010Z,13.22
2022-10-07T01:19:52.957Z,13.18
2022-10-07T01:22:31.232Z,13.18
2022-10-07T01:25:16.128Z,13.18
2022-10-07T01:27:50.347Z,13.19
2022-10-07T01:30:20.645Z,13.15
2022-10-07T01:32:54.322Z,13.14
2022-10-07T01:35:26.590Z,13.11
2022-10-07T01:38:00.695Z,13.11
2022-10-07T01:40:35.937Z,13.13
2022-10-07T01:43:06.924Z,13.17
2022-10-07T01:45:40.751Z,13.06
2022-10-07T01:48:10.288Z,13.10
2022-10-07T01:50:40.391Z,13.10
2022-10-07T01:53:33.182Z,13.09
2022-10-07T01:56:20.125Z,13.04
2022-10-07T01:59:08.173Z,13.01
2022-10-07T02:01:48.333Z,13.04
2022-10-07T02:04:31.177Z,13.05
2022-10-07T02:07:09.242Z,13.03
2022-10-07T02:09:42.353Z,13.02
2022-10-07T02:12:19.444Z,12.99
2022-10-07T02:14:57.995Z,13.00
2022-10-07T02:17:29.238Z,12.98
2022-10-07T02:19:58.535Z,12.99
2022-10-07T02:22:30.375Z,12.99
2022-10-07T02:25:00.557Z,13.00
2022-10-07T02:27:35.283Z,12.97
2022-10-07T02:30:09.700Z,12.93
2022-10-07T02:32:40.574Z,12.93
2022-10-07T02:35:17.211Z,12.95
2022-10-07T02:37:49.352Z,13.00
2022-10-07T02:40:18.238Z,13.01
2022-10-07T02:42:55.089Z,13.03
2022-10-07T02:45:30.401Z,13.05
2022-10-07T02:48:04.814Z,13.06
2022-10-07T02:50:41.177Z,13.06
2022-10-07T02:53:13.738Z,13.06
2022-10-07T02:55:43.707Z,13.07
2022-10-07T02:58:14.303Z,13.07
2022-10-07T03:00:52.919Z,13.04
2022-10-07T03:03:22.317Z,13.01
2022-10-07T03:06:04.654Z,12.99
2022-10-07T03:08:33.550Z,13.00
2022-10-07T03:11:02.967Z,13.00
2022-10-07T03:13:32.367Z,13.00
2022-10-07T03:16:05.581Z,12.98
2022-10-07T03:18:34.578Z,12.98
2022-10-07T03:21:10.074Z,12.96
2022-10-07T03:23:39.403Z,12.92
2022-10-07T03:26:08.063Z,12.93
2022-10-07T03:28:37.470Z,12.91
2022-10-07T03:31:09.282Z,12.91
2022-10-07T03:33:40.750Z,12.91
2022-10-07T03:36:09.911Z,12.91
2022-10-07T03:38:40.554Z,12.91
2022-10-07T03:41:10.698Z,12.89
2022-10-07T03:43:40.105Z,12.88
2022-10-07T03:46:11.022Z,12.88
2022-10-07T03:48:40.261Z,12.84
2022-10-07T03:51:09.057Z,12.83
2022-10-07T03:53:40.617Z,12.82
2022-10-07T03:56:09.686Z,12.84
2022-10-07T03:58:39.844Z,12.85
2022-10-07T04:01:15.198Z,12.88
2022-10-07T04:03:50.561Z,12.90
2022-10-07T04:06:19.837Z,12.88
2022-10-07T04:08:53.127Z,12.90
2022-10-07T04:11:21.488Z,12.91
2022-10-07T04:13:52.254Z,12.93
2022-10-07T04:16:23.711Z,12.92
2022-10-07T04:18:55.916Z,12.93
2022-10-07T04:21:25.771Z,12.93
2022-10-07T04:23:54.237Z,12.93
2022-10-07T04:26:22.426Z,12.93
2022-10-07T04:28:51.220Z,12.95
2022-10-07T04:31:23.946Z,12.93
2022-10-07T04:34:03.596Z,12.90
2022-10-07T04:36:38.404Z,12.87
2022-10-07T04:39:13.488Z,12.83
2022-10-07T04:41:48.106Z,12.82
2022-10-07T04:44:21.311Z,12.83
2022-10-07T04:47:03.989Z,12.84
2022-10-07T04:49:32.677Z,12.83
2022-10-07T04:52:02.441Z,12.84
2022-10-07T04:54:35.370Z,12.81
2022-10-07T04:57:03.801Z,12.80
2022-10-07T04:59:34.396Z,12.77
2022-10-07T05:02:05.066Z,12.77
2022-10-07T05:04:37.179Z,12.74
2022-10-07T05:07:05.915Z,12.73
2022-10-07T05:09:35.858Z,12.76
2022-10-07T05:12:05.152Z,12.70
2022-10-07T05:14:34.230Z,12.65
2022-10-07T05:17:04.993Z,12.61
2022-10-07T05:19:36.867Z,12.47
2022-10-07T05:22:06.018Z,12.46
2022-10-07T05:24:34.593Z,12.46
2022-10-07T05:27:03.591Z,12.48
2022-10-07T05:29:31.779Z,12.44
2022-10-07T05:32:04.773Z,12.42
2022-10-07T05:34:35.692Z,12.40
2022-10-07T05:37:04.009Z,12.38
2022-10-07T05:39:32.898Z,12.39
2022-10-07T05:42:09.562Z,12.38
2022-10-07T05:44:43.857Z,12.37
2022-10-07T05:47:14.249Z,12.38
2022-10-07T05:49:44.345Z,12.36
2022-10-07T05:52:12.672Z,12.33
2022-10-07T05:54:43.314Z,12.28
2022-10-07T05:57:13.293Z,12.25
2022-10-07T05:59:44.162Z,12.24
2022-10-07T06:02:16.237Z,12.23
2022-10-07T06:04:48.837Z,12.20
2022-10-07T06:07:22.048Z,12.18
2022-10-07T06:10:11.126Z,12.20
2022-10-07T06:12:57.159Z,12.20
2022-10-07T06:15:25.502Z,12.23
2022-10-07T06:17:53.760Z,12.29
2022-10-07T06:20:24.654Z,12.35
2022-10-07T06:22:55.462Z,12.36
2022-10-07T06:25:24.722Z,12.43
2022-10-07T06:27:54.872Z,12.50
2022-10-07T06:30:25.484Z,12.55
2022-10-07T06:32:54.477Z,12.65
2022-10-07T06:35:24.794Z,12.74
2022-10-07T06:37:55.363Z,12.80
2022-10-07T06:40:23.599Z,12.84
2022-10-07T06:42:51.826Z,12.94
2022-10-07T06:45:32.605Z,13.01
2022-10-07T06:48:01.560Z,13.10
2022-10-07T06:50:32.493Z,13.15
2022-10-07T06:53:01.042Z,13.23
2022-10-07T06:55:32.972Z,13.32
2022-10-07T06:58:06.293Z,13.35
2022-10-07T07:00:38.530Z,13.39
2022-10-07T07:03:06.709Z,13.48
2022-10-07T07:05:43.015Z,13.60
2022-10-07T07:08:17.432Z,13.69
2022-10-07T07:10:46.495Z,13.77
2022-10-07T07:13:15.599Z,13.85
2022-10-07T07:15:43.868Z,13.93
2022-10-07T07:18:12.465Z,14.10
2022-10-07T07:20:42.901Z,14.24
2022-10-07T07:23:11.242Z,14.26
2022-10-07T07:25:46.025Z,14.27
2022-10-07T07:28:16.477Z,14.28
2022-10-07T07:30:44.822Z,14.31
2022-10-07T07:33:13.074Z,14.31
2022-10-07T07:35:43.686Z,14.42
2022-10-07T07:38:12.370Z,14.57
2022-10-07T07:40:41.115Z,14.55
2022-10-07T07:43:10.276Z,14.55
2022-10-07T07:45:39.121Z,14.72
2022-10-07T07:48:07.362Z,14.87
2022-10-07T07:50:37.287Z,14.84
2022-10-07T07:53:07.500Z,14.76
2022-10-07T07:55:35.674Z,14.75
2022-10-07T07:58:04.368Z,14.82
2022-10-07T08:00:35.265Z,14.87
2022-10-07T08:03:06.853Z,15.09
2022-10-07T08:05:36.063Z,15.23
2022-10-07T08:08:10.978Z,15.18
2022-10-07T08:10:40.301Z,15.30
2022-10-07T08:13:08.644Z,15.46
2022-10-07T08:15:37.500Z,15.51
2022-10-07T08:18:07.424Z,15.77
2022-10-07T08:20:37.131Z,16.31
2022-10-07T08:23:08.545Z,16.88
2022-10-07T08:25:37.223Z,17.07
2022-10-07T08:28:07.590Z,17.15
2022-10-07T08:30:35.987Z,17.23
2022-10-07T08:33:04.307Z,17.35
2022-10-07T08:35:32.483Z,17.64
2022-10-07T08:38:00.715Z,17.91
2022-10-07T08:40:30.677Z,18.48
2022-10-07T08:42:59.589Z,18.55
2022-10-07T08:45:32.791Z,18.54
2022-10-07T08:48:04.360Z,18.18
2022-10-07T08:50:42.632Z,18.15
2022-10-07T08:53:20.608Z,18.13
2022-10-07T08:55:54.012Z,18.02
2022-10-07T08:58:50.535Z,17.59
2022-10-07T09:01:32.242Z,17.53
2022-10-07T09:04:11.220Z,17.94
2022-10-07T09:06:43.711Z,18.90
2022-10-07T09:09:17.022Z,19.09
2022-10-07T09:11:49.306Z,19.09
2022-10-07T09:14:21.793Z,19.24
2022-10-07T09:16:52.217Z,19.42
2022-10-07T09:19:27.083Z,19.25
2022-10-07T09:21:58.749Z,18.98
2022-10-07T09:24:29.882Z,18.62
2022-10-07T09:27:02.203Z,18.30
2022-10-07T09:29:31.308Z,17.93
2022-10-07T09:31:59.794Z,18.26
2022-10-07T09:34:30.872Z,18.59
2022-10-07T09:37:21.257Z,18.35
2022-10-07T09:39:51.603Z,18.06
2022-10-07T09:42:35.018Z,18.31
2022-10-07T09:45:18.954Z,18.45
2022-10-07T09:47:52.609Z,18.17
2022-10-07T09:50:38.275Z,18.07
2022-10-07T09:53:17.824Z,17.86
2022-10-07T09:55:46.299Z,17.74
2022-10-07T09:58:22.655Z,17.76
2022-10-07T10:00:52.430Z,17.75
2022-10-07T10:03:21.877Z,17.83
2022-10-07T10:05:57.557Z,17.63
2022-10-07T10:08:29.449Z,17.58
2022-10-07T10:10:59.257Z,17.55
2022-10-07T10:13:32.825Z,17.43
2022-10-07T10:16:02.598Z,17.46
2022-10-07T10:18:39.559Z,17.33
2022-10-07T10:21:25.372Z,17.28
2022-10-07T10:23:55.569Z,17.35
2022-10-07T10:26:56.101Z,17.40
2022-10-07T10:29:50.720Z,17.44
2022-10-07T10:32:47.697Z,17.90
2022-10-07T10:35:20.195Z,18.28
2022-10-07T10:38:17.901Z,18.44
2022-10-07T10:40:52.898Z,18.32
2022-10-07T10:43:29.683Z,18.28
2022-10-07T10:46:22.032Z,18.35
2022-10-07T10:48:55.734Z,18.40
2022-10-07T10:51:42.742Z,18.27
2022-10-07T10:54:24.346Z,18.25
2022-10-07T10:56:58.469Z,18.40
2022-10-07T10:59:44.593Z,18.54
2022-10-07T11:02:32.858Z,18.95
2022-10-07T11:05:06.440Z,19.11
2022-10-07T11:07:40.481Z,19.30
2022-10-07T11:10:19.022Z,19.17
2022-10-07T11:12:51.201Z,19.02
2022-10-07T11:15:23.554Z,19.25
2022-10-07T11:17:55.754Z,19.40
2022-10-07T11:20:26.243Z,19.68
2022-10-07T11:23:04.497Z,20.39
2022-10-07T11:25:37.728Z,20.70
2022-10-07T11:28:16.004Z,20.65
2022-10-07T11:30:52.389Z,20.54
2022-10-07T11:33:28.879Z,20.37
2022-10-07T11:36:03.979Z,20.22
2022-10-07T11:38:35.348Z,20.38
2022-10-07T11:41:12.086Z,20.71
2022-10-07T11:43:46.400Z,20.94
2022-10-07T11:46:19.804Z,21.23
2022-10-07T11:48:53.902Z,21.18
2022-10-07T11:51:25.573Z,21.20
2022-10-07T11:53:57.543Z,20.90
2022-10-07T11:56:27.766Z,20.72
2022-10-07T11:59:01.979Z,20.34
2022-10-07T12:01:47.789Z,20.13
2022-10-07T12:04:46.733Z,20.00
2022-10-07T12:07:38.396Z,20.09
2022-10-07T12:10:22.113Z,20.40
2022-10-07T12:12:53.080Z,20.68
2022-10-07T12:15:34.102Z,20.96
2022-10-07T12:18:30.273Z,20.70
2022-10-07T12:21:15.264Z,20.57
2022-10-07T12:23:47.329Z,20.81
2022-10-07T12:26:52.239Z,21.13
2022-10-07T12:29:37.145Z,21.05
2022-10-07T12:32:05.910Z,21.02
2022-10-07T12:34:41.317Z,21.08
2022-10-07T12:37:46.362Z,21.11
2022-10-07T12:40:26.006Z,20.98
2022-10-07T12:43:01.789Z,20.80
2022-10-07T12:45:32.157Z,20.60
2022-10-07T12:48:02.627Z,20.48
2022-10-07T12:50:33.601Z,20.44
2022-10-07T12:53:04.731Z,20.28
2022-10-07T12:55:37.152Z,20.32
2022-10-07T12:58:33.673Z,20.46
2022-10-07T13:01:17.305Z,20.66
2022-10-07T13:04:16.773Z,20.82
2022-10-07T13:07:29.148Z,20.90
2022-10-07T13:10:24.542Z,21.12
2022-10-07T13:12:55.234Z,21.45
2022-10-07T13:15:32.760Z,21.57
2022-10-07T13:18:10.923Z,21.70
2022-10-07T13:20:52.029Z,21.79
2022-10-07T13:23:26.833Z,21.91
2022-10-07T13:25:59.719Z,21.86
2022-10-07T13:28:37.325Z,21.85
2022-10-07T13:31:21.395Z,21.85
2022-10-07T13:33:49.964Z,21.72
2022-10-07T13:36:21.520Z,21.65
2022-10-07T13:38:57.918Z,21.58
2022-10-07T13:41:30.440Z,21.66
2022-10-07T13:44:03.163Z,21.67
2022-10-07T13:46:34.546Z,21.75
2022-10-07T13:49:03.705Z,21.79
2022-10-07T13:51:34.917Z,21.80
2022-10-07T13:54:05.914Z,21.89
2022-10-07T13:56:40.830Z,21.89
2022-10-07T13:59:17.188Z,22.00
2022-10-07T14:01:47.559Z,22.08
2022-10-07T14:04:25.398Z,22.18
2022-10-07T14:07:00.082Z,21.97
2022-10-07T14:09:44.374Z,21.57
2022-10-07T14:12:17.297Z,21.22
2022-10-07T14:14:48.266Z,20.85
2022-10-07T14:17:24.822Z,20.57
2022-10-07T14:19:55.971Z,20.47
2022-10-07T14:22:31.617Z,20.26
2022-10-07T14:25:03.626Z,20.21
2022-10-07T14:27:42.257Z,20.17
2022-10-07T14:30:56.365Z,20.28
2022-10-07T14:33:59.491Z,20.58
2022-10-07T14:36:28.540Z,20.84
2022-10-07T14:39:04.045Z,20.92
2022-10-07T14:41:33.538Z,20.96
2022-10-07T14:44:04.076Z,20.88
2022-10-07T14:46:32.493Z,21.00
2022-10-07T14:49:00.870Z,21.01
2022-10-07T14:51:30.552Z,21.11
2022-10-07T14:54:06.627Z,21.18
2022-10-07T14:56:39.560Z,21.06
2022-10-07T14:59:15.707Z,20.96
2022-10-07T15:01:44.241Z,21.04
2022-10-07T15:04:12.612Z,21.00
2022-10-07T15:06:48.685Z,20.90
2022-10-07T15:09:19.777Z,20.72
2022-10-07T15:11:48.086Z,20.67
2022-10-07T15:14:17.732Z,20.67
2022-10-07T15:16:45.967Z,20.70
2022-10-07T15:19:15.299Z,20.57
2022-10-07T15:21:43.542Z,20.37
2022-10-07T15:24:12.929Z,20.25
2022-10-07T15:26:41.440Z,20.21
2022-10-07T15:29:10.084Z,20.20
2022-10-07T15:31:41.327Z,20.23
2022-10-07T15:34:09.612Z,20.30
2022-10-07T15:36:39.909Z,20.36
2022-10-07T15:39:11.906Z,20.27
2022-10-07T15:41:41.616Z,20.15
2022-10-07T15:44:16.195Z,20.21
2022-10-07T15:46:47.613Z,20.23
2022-10-07T15:49:17.117Z,20.23
2022-10-07T15:51:46.805Z,20.16
2022-10-07T15:54:15.276Z,20.04
2022-10-07T15:56:45.284Z,19.96
2022-10-07T15:59:14.506Z,19.93
2022-10-07T16:01:42.757Z,19.86
2022-10-07T16:04:15.336Z,19.77
2022-10-07T16:06:49.642Z,19.76
2022-10-07T16:09:17.998Z,19.81
2022-10-07T16:11:46.987Z,19.77
2022-10-07T16:14:15.724Z,19.67
2022-10-07T16:16:44.426Z,19.60
2022-10-07T16:19:15.209Z,19.48
2022-10-07T16:21:44.206Z,19.37
2022-10-07T16:24:16.421Z,19.35
2022-10-07T16:26:44.824Z,19.22
2022-10-07T16:29:32.815Z,19.30
2022-10-07T16:32:01.405Z,19.38
2022-10-07T16:34:31.245Z,19.54
2022-10-07T16:36:59.823Z,19.60
2022-10-07T16:39:28.077Z,19.62
2022-10-07T16:41:56.491Z,19.50
2022-10-07T16:44:24.900Z,19.38
2022-10-07T16:46:56.662Z,19.26
2022-10-07T16:49:27.565Z,19.13
2022-10-07T16:51:57.768Z,18.99
2022-10-07T16:54:26.168Z,18.83
2022-10-07T16:56:54.375Z,18.65
2022-10-07T16:59:24.549Z,18.54
2022-10-07T17:01:55.550Z,18.41
2022-10-07T17:04:25.152Z,18.31
2022-10-07T17:06:54.240Z,18.22
2022-10-07T17:09:24.882Z,18.12
2022-10-07T17:11:53.201Z,18.05
2022-10-07T17:14:23.815Z,17.98
2022-10-07T17:16:57.667Z,17.92
2022-10-07T17:19:27.259Z,17.86
2022-10-07T17:21:56.679Z,17.82
2022-10-07T17:24:26.397Z,17.79
2022-10-07T17:26:55.226Z,17.66
2022-10-07T17:29:25.944Z,17.59
2022-10-07T17:31:54.418Z,17.45
2022-10-07T17:34:23.667Z,17.37
2022-10-07T17:36:52.245Z,17.30
2022-10-07T17:39:20.739Z,17.24
2022-10-07T17:41:50.449Z,17.17
2022-10-07T17:44:19.100Z,17.11
2022-10-07T17:46:49.031Z,17.04
2022-10-07T17:49:17.470Z,16.96
2022-10-07T17:51:45.697Z,16.89
2022-10-07T17:54:14.951Z,16.83
2022-10-07T17:56:44.604Z,16.78
2022-10-07T17:59:14.803Z,16.73
2022-10-07T18:01:44.494Z,16.68
2022-10-07T18:04:15.612Z,16.63
2022-10-07T18:06:47.036Z,16.57
2022-10-07T18:09:18.767Z,16.53
2022-10-07T18:12:05.230Z,16.46
2022-10-07T18:14:54.088Z,16.40
2022-10-07T18:17:24.792Z,16.33
2022-10-07T18:19:53.764Z,16.29
2022-10-07T18:22:22.140Z,16.25
2022-10-07T18:24:50.679Z,16.21
2022-10-07T18:27:20.827Z,16.19
2022-10-07T18:29:50.482Z,16.19
2022-10-07T18:32:18.694Z,16.16
2022-10-07T18:34:47.603Z,16.16
2022-10-07T18:37:16.718Z,16.14
2022-10-07T18:39:44.972Z,16.16
2022-10-07T18:42:13.165Z,16.21
2022-10-07T18:44:41.426Z,16.28
2022-10-07T18:47:11.089Z,16.36
2022-10-07T18:49:39.275Z,16.44
2022-10-07T18:52:07.446Z,16.50
2022-10-07T18:54:35.617Z,16.56
2022-10-07T18:57:03.903Z,16.62
2022-10-07T18:59:32.097Z,16.65
2022-10-07T19:02:00.322Z,16.68
2022-10-07T19:04:30.305Z,16.71
2022-10-07T19:06:58.493Z,16.72
2022-10-07T19:09:26.662Z,16.72
2022-10-07T19:11:54.940Z,16.73
2022-10-07T19:14:25.912Z,16.77
2022-10-07T19:16:54.352Z,16.78
2022-10-07T19:19:24.086Z,16.78
2022-10-07T19:21:55.438Z,16.82
2022-10-07T19:24:45.617Z,16.83
2022-10-07T19:27:14.308Z,16.85
2022-10-07T19:29:42.449Z,16.89
2022-10-07T19:32:10.739Z,16.93
2022-10-07T19:34:39.009Z,16.94
2022-10-07T19:37:08.600Z,16.97
2022-10-07T19:39:37.034Z,16.99
2022-10-07T19:42:05.637Z,17.00
2022-10-07T19:44:34.379Z,16.99
2022-10-07T19:47:02.814Z,16.99
2022-10-07T19:49:31.014Z,17.02
2022-10-07T19:51:59.154Z,17.03
2022-10-07T19:54:30.502Z,17.04
2022-10-07T19:56:58.674Z,17.04
2022-10-07T19:59:26.879Z,17.09
2022-10-07T20:02:00.206Z,17.12
2022-10-07T20:04:29.291Z,17.11
2022-10-07T20:06:59.256Z,17.13
2022-10-07T20:09:28.841Z,17.15
2022-10-07T20:11:57.013Z,17.16
2022-10-07T20:14:25.257Z,17.18
2022-10-07T20:16:56.011Z,17.19
2022-10-07T20:19:24.145Z,17.19
2022-10-07T20:21:54.019Z,17.21
2022-10-07T20:24:22.224Z,17.20
2022-10-07T20:26:52.119Z,17.16
2022-10-07T20:29:25.162Z,17.15
2022-10-07T20:31:54.010Z,17.15
2022-10-07T20:34:22.442Z,17.15
2022-10-07T20:36:50.859Z,17.15
2022-10-07T20:39:37.950Z,17.15
2022-10-07T20:42:25.765Z,17.16
2022-10-07T20:44:55.058Z,17.18
2022-10-07T20:47:25.973Z,17.19
2022-10-07T20:49:56.584Z,17.23
2022-10-07T20:52:27.183Z,17.27
2022-10-07T20:54:55.866Z,17.26
2022-10-07T20:57:27.553Z,17.23
2022-10-07T20:59:56.294Z,17.21
2022-10-07T21:02:25.618Z,17.17
2022-10-07T21:04:53.842Z,17.13
2022-10-07T21:07:22.138Z,17.10
2022-10-07T21:09:50.337Z,17.09
2022-10-07T21:12:19.495Z,17.07
2022-10-07T21:14:49.905Z,17.08
2022-10-07T21:17:18.386Z,17.07
2022-10-07T21:19:46.883Z,17.06
2022-10-07T21:22:15.144Z,17.04
2022-10-07T21:24:43.333Z,17.03
2022-10-07T21:27:11.635Z,17.03
2022-10-07T21:29:41.215Z,17.02
2022-10-07T21:32:12.285Z,17.00
2022-10-07T21:34:40.745Z,17.00
2022-10-07T21:37:08.898Z,16.98
2022-10-07T21:39:38.339Z,16.92
2022-10-07T21:42:06.800Z,16.86
2022-10-07T21:44:35.618Z,16.82
2022-10-07T21:47:05.139Z,16.80
2022-10-07T21:49:34.776Z,16.82
2022-10-07T21:52:03.019Z,16.80
2022-10-07T21:54:31.457Z,16.80
2022-10-07T21:56:59.738Z,16.82
2022-10-07T21:59:27.950Z,16.85
2022-10-07T22:01:56.230Z,16.85
2022-10-07T22:04:25.012Z,16.86
2022-10-07T22:07:22.251Z,16.85
2022-10-07T22:09:53.230Z,16.86
2022-10-07T22:12:22.331Z,16.88
2022-10-07T22:14:50.645Z,16.83
2022-10-07T22:17:18.948Z,16.75
2022-10-07T22:19:47.157Z,16.66
2022-10-07T22:22:16.836Z,16.54
2022-10-07T22:24:45.005Z,16.41
2022-10-07T22:27:13.203Z,16.34
2022-10-07T22:29:41.404Z,16.32
2022-10-07T22:32:09.567Z,16.28
2022-10-07T22:34:55.452Z,16.30
2022-10-07T22:37:25.397Z,16.24
2022-10-07T22:39:53.910Z,16.27
2022-10-07T22:42:22.114Z,16.28
2022-10-07T22:44:50.343Z,16.25
2022-10-07T22:47:18.553Z,16.20
2022-10-07T22:49:50.182Z,16.17
2022-10-07T22:52:18.446Z,16.13
2022-10-07T22:54:47.988Z,16.07
2022-10-07T22:57:16.685Z,15.97
2022-10-07T22:59:44.829Z,15.87
2022-10-07T23:02:13.201Z,15.76
2022-10-07T23:04:41.449Z,15.68
2022-10-07T23:07:10.492Z,15.64
2022-10-07T23:09:38.689Z,15.57
2022-10-07T23:12:08.353Z,15.54
2022-10-07T23:14:36.685Z,15.49
2022-10-07T23:17:04.897Z,15.47
2022-10-07T23:19:33.173Z,15.50
2022-10-07T23:22:01.426Z,15.54
2022-10-07T23:24:29.559Z,15.56
2022-10-07T23:26:57.774Z,15.57
2022-10-07T23:29:30.054Z,15.59
2022-10-07T23:31:58.249Z,15.60
2022-10-07T23:34:27.468Z,15.61
2022-10-07T23:36:55.711Z,15.64
2022-10-07T23:39:24.280Z,15.67
2022-10-07T23:41:52.514Z,15.68
2022-10-07T23:44:23.071Z,15.69
2022-10-07T23:46:52.780Z,15.71
2022-10-07T23:49:21.095Z,15.73
2022-10-07T23:51:49.345Z,15.80
2022-10-07T23:54:17.681Z,15.86
2022-10-07T23:56:45.900Z,15.86
2022-10-07T23:59:14.531Z,15.85
